createdAt,value
2018-01-11T00:00:19.013Z,99.80
2018-01-11T00:01:19.008Z,107.80
2018-01-11T00:02:19.001Z,116.10
2018-01-11T00:03:18.998Z,99.30
2018-01-11T00:04:18.982Z,101.30
2018-01-11T00:05:18.974Z,111.40
2018-01-11T00:06:18.965Z,127.30
2018-01-11T00:07:18.998Z,107.70
2018-01-11T00:08:18.951Z,105.70
2018-01-11T00:09:18.943Z,97.70
2018-01-11T00:10:18.936Z,110.50
2018-01-11T00:11:18.929Z,97.90
2018-01-11T00:12:18.921Z,108.30
2018-01-11T00:13:18.909Z,119.20
2018-01-11T00:14:18.905Z,91.40
2018-01-11T00:15:18.898Z,100.40
2018-01-11T00:16:18.890Z,152.90
2018-01-11T00:17:18.900Z,152.90
2018-01-11T00:18:18.874Z,155.20
2018-01-11T00:19:18.867Z,104.10
2018-01-11T00:20:18.859Z,137.90
2018-01-11T00:21:18.850Z,159.60
2018-01-11T00:22:18.844Z,104.60
2018-01-11T00:23:18.836Z,110.00
2018-01-11T00:24:18.834Z,151.10
2018-01-11T00:25:18.820Z,169.70
2018-01-11T00:26:18.812Z,95.00
2018-01-11T00:27:18.805Z,119.40
2018-01-11T00:28:18.802Z,143.10
2018-01-11T00:29:18.790Z,107.60
2018-01-11T00:30:18.781Z,89.80
2018-01-11T00:31:18.777Z,121.50
2018-01-11T00:32:18.767Z,81.60
2018-01-11T00:33:18.757Z,99.50
2018-01-11T00:34:18.752Z,136.10
2018-01-11T00:35:18.744Z,106.30
2018-01-11T00:36:18.738Z,104.50
2018-01-11T00:37:18.726Z,110.20
2018-01-11T00:38:18.719Z,141.70
2018-01-11T00:39:18.710Z,122.00
2018-01-11T00:40:18.702Z,94.50
2018-01-11T00:41:18.695Z,129.10
2018-01-11T00:42:18.688Z,94.30
2018-01-11T00:43:18.679Z,140.20
2018-01-11T00:44:18.674Z,135.10
2018-01-11T00:45:18.667Z,140.00
2018-01-11T00:46:18.661Z,124.20
2018-01-11T00:47:18.646Z,129.10
2018-01-11T00:48:18.646Z,138.70
2018-01-11T00:49:18.634Z,145.70
2018-01-11T00:50:18.623Z,143.70
2018-01-11T00:51:18.619Z,106.10
2018-01-11T00:52:18.608Z,142.90
2018-01-11T00:53:18.601Z,103.80
2018-01-11T00:54:18.592Z,110.60
2018-01-11T00:55:18.585Z,98.30
2018-01-11T00:56:18.580Z,95.80
2018-01-11T00:57:18.569Z,113.70
2018-01-11T00:58:18.563Z,80.20
2018-01-11T00:59:18.554Z,77.80
2018-01-11T01:00:18.546Z,69.50
2018-01-11T01:01:18.537Z,77.00
2018-01-11T01:02:18.529Z,72.70
2018-01-11T01:03:18.522Z,75.90
2018-01-11T01:04:18.544Z,110.50
2018-01-11T01:05:18.508Z,74.00
2018-01-11T01:06:18.499Z,114.20
2018-01-11T01:07:18.495Z,85.90
2018-01-11T01:08:18.481Z,74.10
2018-01-11T01:09:18.473Z,114.10
2018-01-11T01:10:18.473Z,114.70
2018-01-11T01:11:18.459Z,114.10
2018-01-11T01:12:18.458Z,74.30
2018-01-11T01:13:18.443Z,84.80
2018-01-11T01:14:18.437Z,109.10
2018-01-11T01:15:18.425Z,80.20
2018-01-11T01:16:18.422Z,85.30
2018-01-11T01:17:18.412Z,88.90
2018-01-11T01:18:18.404Z,108.50
2018-01-11T01:19:18.400Z,105.80
2018-01-11T01:20:18.388Z,126.00
2018-01-11T01:21:18.379Z,102.80
2018-01-11T01:22:18.372Z,130.30
2018-01-11T01:23:18.365Z,113.40
2018-01-11T01:24:18.356Z,131.20
2018-01-11T01:25:18.351Z,113.00
2018-01-11T01:26:18.341Z,102.70
2018-01-11T01:27:18.335Z,133.00
2018-01-11T01:28:18.327Z,140.40
2018-01-11T01:29:18.313Z,125.30
2018-01-11T01:30:18.308Z,110.30
2018-01-11T01:31:18.299Z,101.00
2018-01-11T01:32:18.292Z,129.20
2018-01-11T01:33:18.284Z,75.60
2018-01-11T01:34:18.280Z,80.70
2018-01-11T01:35:18.265Z,104.00
2018-01-11T01:36:18.259Z,78.90
2018-01-11T01:37:18.251Z,75.00
2018-01-11T01:38:18.244Z,79.80
2018-01-11T01:39:18.238Z,74.90
2018-01-11T01:40:18.241Z,68.10
2018-01-11T01:41:18.220Z,80.50
2018-01-11T01:42:18.216Z,75.80
2018-01-11T01:43:18.207Z,89.70
2018-01-11T01:44:18.197Z,69.50
2018-01-11T01:45:18.187Z,69.20
2018-01-11T01:46:18.181Z,79.50
2018-01-11T01:47:18.173Z,69.80
2018-01-11T01:48:18.163Z,66.70
2018-01-11T01:49:18.155Z,69.70
2018-01-11T01:50:18.156Z,62.20
2018-01-11T01:51:18.141Z,66.60
2018-01-11T01:52:18.135Z,88.40
2018-01-11T01:53:18.123Z,76.80
2018-01-11T01:54:18.118Z,78.90
2018-01-11T01:55:18.107Z,78.30
2018-01-11T01:56:18.100Z,97.90
2018-01-11T01:57:18.110Z,97.00
2018-01-11T01:58:18.111Z,119.80
2018-01-11T01:59:18.076Z,75.20
2018-01-11T02:00:18.068Z,70.00
2018-01-11T02:01:18.063Z,67.90
2018-01-11T02:02:18.051Z,70.70
2018-01-11T02:03:18.047Z,71.60
2018-01-11T02:04:18.035Z,69.40
2018-01-11T02:05:18.030Z,80.30
2018-01-11T02:06:18.021Z,66.80
2018-01-11T02:07:18.012Z,64.20
2018-01-11T02:08:18.007Z,78.30
2018-01-11T02:09:17.995Z,80.50
2018-01-11T02:10:17.987Z,95.70
2018-01-11T02:11:17.980Z,66.10
2018-01-11T02:12:17.972Z,106.50
2018-01-11T02:13:17.967Z,78.00
2018-01-11T02:14:17.955Z,96.30
2018-01-11T02:15:17.954Z,64.40
2018-01-11T02:16:17.940Z,85.10
2018-01-11T02:17:17.932Z,87.90
2018-01-11T02:18:17.922Z,83.90
2018-01-11T02:19:17.918Z,77.00
2018-01-11T02:20:17.906Z,57.60
2018-01-11T02:21:17.899Z,58.20
2018-01-11T02:22:17.895Z,69.50
2018-01-11T02:23:17.885Z,73.30
2018-01-11T02:24:17.876Z,68.40
2018-01-11T02:25:17.867Z,94.30
2018-01-11T02:26:17.860Z,88.70
2018-01-11T02:27:17.850Z,62.60
2018-01-11T02:28:17.844Z,57.70
2018-01-11T02:29:17.839Z,72.00
2018-01-11T02:30:17.828Z,55.10
2018-01-11T02:31:17.823Z,55.70
2018-01-11T02:32:17.811Z,54.50
2018-01-11T02:33:17.802Z,56.80
2018-01-11T02:34:17.798Z,55.40
2018-01-11T02:35:17.789Z,73.70
2018-01-11T02:36:17.783Z,60.50
2018-01-11T02:37:17.774Z,56.70
2018-01-11T02:38:17.767Z,57.20
2018-01-11T02:39:17.756Z,56.50
2018-01-11T02:40:17.750Z,53.90
2018-01-11T02:41:17.740Z,52.80
2018-01-11T02:42:17.732Z,53.20
2018-01-11T02:43:17.727Z,51.70
2018-01-11T02:44:17.718Z,54.40
2018-01-11T02:45:17.709Z,57.40
2018-01-11T02:46:17.702Z,54.50
2018-01-11T02:47:17.695Z,59.10
2018-01-11T02:48:17.686Z,58.60
2018-01-11T02:49:17.678Z,55.20
2018-01-11T02:50:17.674Z,54.60
2018-01-11T02:51:17.663Z,60.10
2018-01-11T02:52:17.658Z,72.80
2018-01-11T02:53:17.646Z,56.00
2018-01-11T02:54:17.639Z,58.30
2018-01-11T02:55:17.630Z,59.10
2018-01-11T02:56:17.623Z,53.10
2018-01-11T02:57:17.616Z,55.70
2018-01-11T02:58:17.608Z,53.70
2018-01-11T02:59:17.604Z,53.80
2018-01-11T03:00:17.592Z,51.30
2018-01-11T03:01:17.583Z,51.60
2018-01-11T03:02:17.573Z,50.80
2018-01-11T03:03:17.573Z,50.50
2018-01-11T03:04:17.558Z,52.50
2018-01-11T03:05:17.550Z,57.50
2018-01-11T03:06:17.546Z,53.70
2018-01-11T03:07:17.535Z,51.80
2018-01-11T03:08:17.528Z,50.90
2018-01-11T03:09:17.519Z,50.60
2018-01-11T03:10:17.512Z,51.50
2018-01-11T03:11:17.501Z,49.90
2018-01-11T03:12:17.495Z,53.70
2018-01-11T03:13:17.487Z,64.00
2018-01-11T03:14:17.479Z,54.00
2018-01-11T03:15:17.473Z,51.10
2018-01-11T03:16:17.465Z,46.70
2018-01-11T03:17:17.463Z,54.70
2018-01-11T03:18:17.446Z,45.60
2018-01-11T03:19:17.441Z,45.10
2018-01-11T03:20:17.435Z,45.00
2018-01-11T03:21:17.424Z,47.60
2018-01-11T03:22:17.415Z,46.10
2018-01-11T03:23:17.409Z,50.10
2018-01-11T03:24:17.404Z,49.10
2018-01-11T03:25:17.391Z,50.00
2018-01-11T03:26:17.383Z,56.20
2018-01-11T03:27:17.377Z,53.50
2018-01-11T03:28:17.368Z,56.40
2018-01-11T03:29:17.359Z,56.00
2018-01-11T03:30:17.353Z,60.00
2018-01-11T03:31:17.355Z,46.50
2018-01-11T03:32:17.336Z,44.10
2018-01-11T03:33:17.328Z,45.20
2018-01-11T03:34:17.321Z,45.10
2018-01-11T03:35:17.315Z,45.30
2018-01-11T03:36:17.304Z,46.20
2018-01-11T03:37:17.298Z,44.30
2018-01-11T03:38:17.288Z,47.90
2018-01-11T03:39:17.295Z,46.70
2018-01-11T03:40:17.274Z,49.10
2018-01-11T03:41:17.265Z,51.00
2018-01-11T03:42:17.257Z,47.40
2018-01-11T03:43:17.250Z,44.30
2018-01-11T03:44:17.244Z,44.30
2018-01-11T03:45:17.233Z,46.60
2018-01-11T03:46:17.231Z,49.30
2018-01-11T03:47:17.219Z,49.80
2018-01-11T03:48:17.210Z,47.30
2018-01-11T03:49:17.204Z,50.70
2018-01-11T03:50:17.196Z,46.90
2018-01-11T03:51:17.187Z,50.10
2018-01-11T03:52:17.180Z,50.40
2018-01-11T03:53:17.172Z,47.60
2018-01-11T03:54:17.163Z,57.20
2018-01-11T03:55:17.156Z,50.00
2018-01-11T03:56:17.148Z,47.90
2018-01-11T03:57:17.140Z,46.50
2018-01-11T03:58:17.130Z,50.90
2018-01-11T03:59:17.126Z,45.90
2018-01-11T04:00:17.118Z,47.60
2018-01-11T04:01:17.110Z,50.00
2018-01-11T04:02:17.107Z,51.50
2018-01-11T04:03:17.095Z,57.70
2018-01-11T04:04:17.086Z,48.50
2018-01-11T04:05:17.078Z,47.30
2018-01-11T04:06:17.076Z,45.80
2018-01-11T04:07:17.064Z,45.80
2018-01-11T04:08:17.060Z,47.20
2018-01-11T04:09:17.050Z,47.90
2018-01-11T04:10:17.039Z,47.70
2018-01-11T04:11:17.034Z,46.80
2018-01-11T04:12:17.025Z,50.00
2018-01-11T04:13:17.018Z,46.70
2018-01-11T04:14:17.014Z,50.00
2018-01-11T04:15:17.001Z,50.50
2018-01-11T04:16:16.991Z,46.30
2018-01-11T04:17:16.984Z,47.10
2018-01-11T04:18:16.976Z,49.10
2018-01-11T04:19:16.968Z,48.10
2018-01-11T04:20:16.963Z,56.40
2018-01-11T04:21:16.952Z,58.20
2018-01-11T04:22:16.945Z,56.70
2018-01-11T04:23:16.938Z,53.30
2018-01-11T04:24:16.930Z,50.40
2018-01-11T04:25:16.919Z,53.80
2018-01-11T04:26:16.914Z,54.90
2018-01-11T04:27:16.908Z,52.20
2018-01-11T04:28:16.903Z,51.90
2018-01-11T04:29:16.892Z,50.90
2018-01-11T04:30:16.882Z,46.70
2018-01-11T04:31:16.878Z,48.50
2018-01-11T04:32:16.864Z,52.30
2018-01-11T04:33:16.864Z,53.20
2018-01-11T04:34:16.850Z,56.50
2018-01-11T04:35:16.842Z,53.50
2018-01-11T04:36:16.838Z,54.30
2018-01-11T04:37:16.827Z,56.70
2018-01-11T04:38:16.823Z,56.10
2018-01-11T04:39:16.810Z,56.00
2018-01-11T04:40:16.807Z,54.60
2018-01-11T04:41:16.815Z,52.20
2018-01-11T04:42:16.786Z,51.10
2018-01-11T04:43:16.779Z,48.90
2018-01-11T04:44:16.772Z,56.20
2018-01-11T04:45:16.761Z,52.60
2018-01-11T04:46:16.755Z,50.30
2018-01-11T04:47:16.747Z,52.00
2018-01-11T04:48:16.739Z,49.70
2018-01-11T04:49:16.733Z,50.20
2018-01-11T04:50:16.727Z,51.00
2018-01-11T04:51:16.715Z,50.90
2018-01-11T04:52:16.707Z,55.10
2018-01-11T04:53:16.699Z,52.40
2018-01-11T04:54:16.691Z,51.90
2018-01-11T04:55:16.684Z,49.40
2018-01-11T04:56:16.675Z,49.40
2018-01-11T04:57:16.665Z,52.60
2018-01-11T04:58:16.658Z,50.90
2018-01-11T04:59:16.651Z,53.70
2018-01-11T05:00:16.639Z,51.30
2018-01-11T05:01:16.632Z,52.90
2018-01-11T05:02:16.628Z,53.10
2018-01-11T05:03:16.623Z,52.50
2018-01-11T05:04:16.612Z,53.40
2018-01-11T05:05:16.603Z,54.60
2018-01-11T05:06:16.591Z,54.60
2018-01-11T05:07:16.585Z,55.60
2018-01-11T05:08:16.574Z,56.10
2018-01-11T05:09:16.574Z,55.50
2018-01-11T05:10:16.569Z,54.20
2018-01-11T05:11:16.552Z,56.60
2018-01-11T05:12:16.544Z,54.20
2018-01-11T05:13:16.541Z,57.50
2018-01-11T05:14:16.530Z,55.00
2018-01-11T05:15:16.518Z,57.00
2018-01-11T05:16:16.511Z,56.80
2018-01-11T05:17:16.500Z,59.30
2018-01-11T05:18:16.494Z,60.00
2018-01-11T05:19:16.485Z,61.00
2018-01-11T05:20:16.477Z,60.40
2018-01-11T05:21:16.471Z,59.80
2018-01-11T05:22:16.460Z,60.00
2018-01-11T05:23:16.453Z,61.50
2018-01-11T05:24:16.443Z,62.60
2018-01-11T05:25:16.434Z,61.90
2018-01-11T05:26:16.426Z,65.70
2018-01-11T05:27:16.418Z,61.90
2018-01-11T05:28:16.412Z,60.80
2018-01-11T05:29:16.399Z,61.80
2018-01-11T05:30:16.392Z,62.10
2018-01-11T05:31:16.386Z,63.50
2018-01-11T05:32:16.377Z,65.60
2018-01-11T05:33:16.369Z,67.90
2018-01-11T05:34:16.359Z,63.60
2018-01-11T05:35:16.354Z,66.50
2018-01-11T05:36:16.344Z,66.70
2018-01-11T05:37:16.336Z,61.50
2018-01-11T05:38:16.328Z,65.00
2018-01-11T05:39:16.318Z,62.10
2018-01-11T05:40:16.313Z,66.80
2018-01-11T05:41:16.302Z,71.20
2018-01-11T05:42:16.295Z,69.90
2018-01-11T05:43:16.290Z,67.40
2018-01-11T05:44:16.277Z,69.70
2018-01-11T05:45:16.271Z,69.00
2018-01-11T05:46:16.261Z,66.50
2018-01-11T05:47:16.251Z,63.50
2018-01-11T05:48:16.242Z,71.70
2018-01-11T05:49:16.236Z,72.40
2018-01-11T05:50:16.229Z,70.00
2018-01-11T05:51:16.218Z,69.90
2018-01-11T05:52:16.211Z,69.00
2018-01-11T05:53:16.201Z,69.50
2018-01-11T05:54:16.194Z,66.40
2018-01-11T05:55:16.185Z,64.00
2018-01-11T05:56:16.186Z,68.70
2018-01-11T05:57:16.169Z,64.50
2018-01-11T05:58:16.162Z,63.20
2018-01-11T05:59:16.156Z,68.80
2018-01-11T06:00:16.147Z,67.90
2018-01-11T06:01:16.136Z,62.90
2018-01-11T06:02:16.127Z,60.20
2018-01-11T06:03:16.118Z,61.70
2018-01-11T06:04:16.117Z,60.00
2018-01-11T06:05:16.103Z,63.90
2018-01-11T06:06:16.095Z,65.70
2018-01-11T06:07:16.086Z,58.50
2018-01-11T06:08:16.078Z,57.70
2018-01-11T06:09:16.069Z,58.30
2018-01-11T06:10:16.061Z,60.40
2018-01-11T06:11:16.060Z,59.00
2018-01-11T06:12:16.047Z,56.70
2018-01-11T06:13:16.039Z,58.70
2018-01-11T06:14:16.034Z,56.00
2018-01-11T06:15:16.024Z,57.00
2018-01-11T06:16:16.014Z,57.00
2018-01-11T06:17:16.004Z,61.10
2018-01-11T06:18:16.000Z,58.40
2018-01-11T06:19:15.990Z,59.40
2018-01-11T06:20:15.982Z,61.90
2018-01-11T06:21:15.975Z,58.10
2018-01-11T06:22:15.965Z,56.80
2018-01-11T06:23:15.958Z,59.50
2018-01-11T06:24:15.950Z,57.30
2018-01-11T06:25:15.951Z,61.20
2018-01-11T06:26:15.934Z,59.70
2018-01-11T06:27:15.954Z,57.20
2018-01-11T06:28:15.916Z,58.60
2018-01-11T06:29:15.925Z,57.90
2018-01-11T06:30:15.902Z,63.10
2018-01-11T06:31:15.894Z,59.30
2018-01-11T06:32:15.897Z,60.80
2018-01-11T06:33:15.878Z,60.50
2018-01-11T06:34:15.869Z,60.40
2018-01-11T06:35:15.859Z,61.60
2018-01-11T06:36:15.855Z,60.50
2018-01-11T06:37:15.846Z,59.30
2018-01-11T06:38:15.843Z,60.80
2018-01-11T06:39:15.840Z,60.90
2018-01-11T06:40:15.825Z,60.60
2018-01-11T06:41:15.816Z,65.10
2018-01-11T06:42:15.808Z,60.00
2018-01-11T06:43:15.805Z,61.00
2018-01-11T06:44:15.793Z,60.40
2018-01-11T06:45:15.784Z,62.10
2018-01-11T06:46:15.777Z,68.30
2018-01-11T06:47:15.769Z,62.80
2018-01-11T06:48:15.762Z,63.90
2018-01-11T06:49:15.752Z,63.40
2018-01-11T06:50:15.746Z,62.70
2018-01-11T06:51:15.738Z,67.00
2018-01-11T06:52:23.375Z,65.50
2018-01-11T06:54:09.124Z,69.40
2018-01-11T06:55:09.101Z,67.50
2018-01-11T06:57:02.493Z,72.60
2018-01-11T06:58:02.474Z,67.20
2018-01-11T06:59:56.864Z,65.40
2018-01-11T07:00:56.835Z,64.60
2018-01-11T07:01:56.825Z,63.20
2018-01-11T07:02:56.818Z,64.90
2018-01-11T07:03:56.807Z,66.70
2018-01-11T07:04:56.802Z,62.30
2018-01-11T07:05:56.792Z,62.10
2018-01-11T07:06:56.788Z,63.70
2018-01-11T07:07:56.782Z,75.10
2018-01-11T07:08:56.771Z,65.00
2018-01-11T07:09:56.763Z,65.10
2018-01-11T07:10:56.751Z,69.50
2018-01-11T07:11:56.748Z,66.60
2018-01-11T07:12:56.744Z,72.80
2018-01-11T07:13:56.735Z,66.10
2018-01-11T07:14:56.738Z,69.20
2018-01-11T07:15:56.716Z,64.40
2018-01-11T07:16:56.717Z,65.90
2018-01-11T07:17:56.787Z,64.90
2018-01-11T07:18:56.697Z,61.80
2018-01-11T07:19:56.693Z,62.40
2018-01-11T07:20:56.681Z,60.40
2018-01-11T07:21:56.672Z,60.60
2018-01-11T07:22:56.706Z,63.30
2018-01-11T07:23:56.661Z,62.30
2018-01-11T07:24:56.652Z,60.70
2018-01-11T07:25:56.649Z,64.50
2018-01-11T07:26:56.637Z,62.20
2018-01-11T07:27:56.636Z,63.10
2018-01-11T07:28:56.621Z,62.30
2018-01-11T07:29:56.620Z,61.90
2018-01-11T07:30:56.604Z,64.40
2018-01-11T07:31:56.599Z,64.70
2018-01-11T07:32:56.589Z,72.70
2018-01-11T07:33:56.592Z,66.00
2018-01-11T07:34:56.575Z,73.00
2018-01-11T07:35:56.570Z,68.60
2018-01-11T07:36:56.566Z,73.80
2018-01-11T07:37:56.551Z,81.00
2018-01-11T07:38:56.542Z,66.90
2018-01-11T07:39:56.535Z,72.70
2018-01-11T07:40:56.535Z,74.80
2018-01-11T07:41:56.524Z,68.30
2018-01-11T07:42:56.516Z,65.30
2018-01-11T07:43:56.504Z,68.00
2018-01-11T07:44:56.506Z,65.70
2018-01-11T07:45:56.496Z,70.20
2018-01-11T07:46:56.490Z,64.70
2018-01-11T07:47:56.482Z,67.20
2018-01-11T07:48:56.470Z,67.50
2018-01-11T07:49:56.468Z,62.40
2018-01-11T07:50:56.456Z,64.30
2018-01-11T07:51:56.450Z,63.90
2018-01-11T07:52:56.448Z,70.30
2018-01-11T07:53:56.435Z,64.60
2018-01-11T07:54:56.428Z,63.20
2018-01-11T07:55:56.421Z,67.80
2018-01-11T07:56:56.415Z,68.90
2018-01-11T07:57:56.408Z,65.20
2018-01-11T07:58:56.408Z,65.60
2018-01-11T07:59:56.396Z,67.80
2018-01-11T08:00:56.385Z,64.70
2018-01-11T08:01:56.373Z,65.70
2018-01-11T08:02:56.370Z,64.30
2018-01-11T08:03:56.363Z,65.90
2018-01-11T08:04:56.358Z,61.50
2018-01-11T08:05:56.349Z,62.30
2018-01-11T08:06:56.340Z,62.50
2018-01-11T08:07:56.338Z,65.50
2018-01-11T08:08:56.322Z,61.30
2018-01-11T08:09:56.319Z,64.50
2018-01-11T08:10:56.313Z,62.10
2018-01-11T08:11:56.303Z,62.30
2018-01-11T08:12:56.296Z,64.30
2018-01-11T08:13:56.288Z,60.30
2018-01-11T08:14:56.313Z,58.70
2018-01-11T08:15:56.273Z,61.00
2018-01-11T08:16:56.266Z,61.90
2018-01-11T08:17:56.259Z,61.10
2018-01-11T08:18:56.251Z,62.30
2018-01-11T08:19:56.244Z,58.80
2018-01-11T08:20:56.237Z,56.90
2018-01-11T08:21:56.228Z,59.70
2018-01-11T08:22:56.223Z,62.10
2018-01-11T08:23:56.213Z,64.00
2018-01-11T08:24:56.211Z,69.00
2018-01-11T08:25:56.200Z,62.20
2018-01-11T08:26:56.193Z,57.40
2018-01-11T08:27:56.189Z,60.30
2018-01-11T08:28:56.178Z,63.30
2018-01-11T08:29:56.172Z,65.20
2018-01-11T08:30:56.157Z,60.10
2018-01-11T08:31:56.155Z,61.50
2018-01-11T08:32:56.147Z,63.80
2018-01-11T08:33:56.140Z,100.00
2018-01-11T08:34:56.159Z,78.50
2018-01-11T08:35:56.124Z,63.70
2018-01-11T08:36:56.121Z,77.40
2018-01-11T08:37:56.107Z,77.60
2018-01-11T08:38:56.104Z,72.10
2018-01-11T08:39:56.092Z,65.00
2018-01-11T08:40:56.088Z,71.90
2018-01-11T08:41:56.077Z,77.00
2018-01-11T08:42:56.074Z,78.60
2018-01-11T08:43:56.062Z,70.00
2018-01-11T08:44:56.059Z,69.20
2018-01-11T08:45:56.050Z,73.10
2018-01-11T08:46:56.043Z,72.90
2018-01-11T08:47:56.033Z,70.60
2018-01-11T08:48:56.031Z,73.10
2018-01-11T08:49:56.018Z,77.40
2018-01-11T08:50:56.014Z,73.80
2018-01-11T08:51:56.008Z,65.80
2018-01-11T08:52:55.996Z,61.90
2018-01-11T08:53:55.991Z,65.30
2018-01-11T08:54:55.986Z,56.60
2018-01-11T08:55:55.977Z,63.20
2018-01-11T08:56:55.974Z,69.10
2018-01-11T08:57:55.961Z,68.20
2018-01-11T08:58:55.952Z,63.60
2018-01-11T08:59:55.949Z,70.60
2018-01-11T09:00:55.939Z,61.90
2018-01-11T09:01:55.930Z,63.70
2018-01-11T09:02:55.924Z,62.20
2018-01-11T09:03:55.916Z,75.80
2018-01-11T09:04:55.907Z,66.80
2018-01-11T09:05:55.902Z,77.10
2018-01-11T09:06:55.892Z,76.70
2018-01-11T09:07:55.888Z,74.70
2018-01-11T09:08:55.881Z,76.20
2018-01-11T09:09:55.870Z,78.70
2018-01-11T09:10:55.865Z,72.90
2018-01-11T09:11:55.857Z,76.20
2018-01-11T09:12:55.850Z,79.70
2018-01-11T09:13:55.841Z,68.70
2018-01-11T09:14:55.838Z,62.10
2018-01-11T09:15:55.823Z,61.60
2018-01-11T09:16:55.818Z,59.10
2018-01-11T09:17:55.810Z,60.30
2018-01-11T09:18:55.827Z,63.20
2018-01-11T09:19:55.797Z,69.50
2018-01-11T09:20:55.790Z,64.20
2018-01-11T09:21:55.780Z,60.30
2018-01-11T09:22:55.774Z,64.00
2018-01-11T09:23:55.768Z,67.10
2018-01-11T09:24:55.760Z,60.80
2018-01-11T09:25:55.759Z,64.70
2018-01-11T09:26:55.795Z,58.60
2018-01-11T09:27:55.739Z,63.90
2018-01-11T09:28:55.727Z,65.80
2018-01-11T09:29:55.725Z,62.30
2018-01-11T09:30:55.718Z,56.10
2018-01-11T09:31:55.708Z,65.80
2018-01-11T09:32:55.699Z,62.40
2018-01-11T09:33:55.692Z,59.80
2018-01-11T09:34:55.684Z,59.40
2018-01-11T09:35:55.678Z,63.90
2018-01-11T09:36:55.672Z,61.80
2018-01-11T09:37:55.663Z,66.70
2018-01-11T09:38:55.655Z,64.50
2018-01-11T09:39:55.651Z,71.60
2018-01-11T09:40:55.649Z,62.80
2018-01-11T09:41:55.631Z,57.80
2018-01-11T09:42:55.627Z,61.00
2018-01-11T09:43:55.618Z,56.80
2018-01-11T09:44:55.609Z,54.70
2018-01-11T09:45:55.604Z,49.80
2018-01-11T09:46:55.597Z,53.70
2018-01-11T09:47:55.588Z,49.60
2018-01-11T09:48:55.618Z,50.10
2018-01-11T09:49:55.573Z,46.60
2018-01-11T09:50:55.567Z,50.90
2018-01-11T09:51:55.559Z,48.60
2018-01-11T09:52:55.551Z,48.80
2018-01-11T09:53:55.544Z,47.70
2018-01-11T09:54:55.536Z,51.70
2018-01-11T09:55:55.528Z,53.40
2018-01-11T09:56:55.524Z,50.00
2018-01-11T09:57:55.517Z,46.60
2018-01-11T09:58:55.506Z,49.50
2018-01-11T09:59:55.504Z,49.70
2018-01-11T10:00:55.492Z,52.30
2018-01-11T10:01:55.505Z,47.50
2018-01-11T10:02:55.477Z,50.30
2018-01-11T10:03:55.471Z,44.70
2018-01-11T10:04:55.465Z,46.80
2018-01-11T10:05:55.457Z,53.10
2018-01-11T10:06:55.464Z,48.50
2018-01-11T10:07:55.473Z,47.60
2018-01-11T10:08:55.439Z,50.20
2018-01-11T10:09:55.427Z,47.00
2018-01-11T10:10:55.419Z,47.40
2018-01-11T10:11:55.412Z,42.40
2018-01-11T10:12:55.406Z,41.80
2018-01-11T10:13:55.398Z,44.20
2018-01-11T10:14:55.390Z,45.80
2018-01-11T10:15:55.379Z,43.80
2018-01-11T10:16:55.378Z,42.30
2018-01-11T10:17:55.369Z,47.10
2018-01-11T10:18:55.365Z,41.60
2018-01-11T10:19:55.355Z,40.00
2018-01-11T10:20:55.348Z,40.70
2018-01-11T10:21:55.341Z,40.70
2018-01-11T10:22:55.333Z,40.90
2018-01-11T10:23:55.324Z,41.60
2018-01-11T10:24:55.321Z,44.40
2018-01-11T10:25:55.312Z,44.20
2018-01-11T10:26:55.306Z,41.80
2018-01-11T10:27:55.299Z,46.00
2018-01-11T10:28:55.292Z,45.10
2018-01-11T10:29:55.283Z,46.20
2018-01-11T10:30:55.276Z,43.10
2018-01-11T10:31:55.268Z,40.70
2018-01-11T10:32:55.269Z,40.90
2018-01-11T10:33:55.255Z,43.60
2018-01-11T10:34:55.249Z,44.60
2018-01-11T10:35:55.246Z,42.30
2018-01-11T10:36:55.240Z,43.00
2018-01-11T10:37:55.229Z,44.70
2018-01-11T10:38:55.219Z,42.40
2018-01-11T10:39:55.214Z,40.50
2018-01-11T10:40:55.208Z,41.60
2018-01-11T10:41:55.202Z,40.20
2018-01-11T10:42:55.193Z,42.40
2018-01-11T10:43:55.187Z,41.60
2018-01-11T10:44:55.180Z,41.90
2018-01-11T10:45:55.186Z,41.70
2018-01-11T10:46:55.163Z,40.90
2018-01-11T10:47:55.160Z,40.80
2018-01-11T10:48:55.155Z,39.10
2018-01-11T10:49:55.149Z,38.20
2018-01-11T10:50:55.137Z,39.10
2018-01-11T10:51:55.130Z,41.60
2018-01-11T10:52:55.123Z,42.70
2018-01-11T10:53:55.115Z,39.80
2018-01-11T10:54:55.126Z,41.80
2018-01-11T10:55:55.104Z,42.90
2018-01-11T10:56:55.096Z,42.70
2018-01-11T10:57:55.092Z,44.30
2018-01-11T10:58:55.082Z,42.60
2018-01-11T10:59:55.077Z,39.30
2018-01-11T11:00:55.069Z,40.70
2018-01-11T11:01:55.063Z,41.10
2018-01-11T11:02:55.053Z,46.50
2018-01-11T11:03:55.050Z,40.40
2018-01-11T11:04:55.042Z,43.80
2018-01-11T11:05:55.035Z,42.00
2018-01-11T11:06:55.026Z,43.50
2018-01-11T11:07:55.021Z,44.40
2018-01-11T11:08:55.015Z,45.90
2018-01-11T11:09:55.007Z,48.30
2018-01-11T11:10:54.999Z,46.10
2018-01-11T11:11:54.994Z,48.40
2018-01-11T11:12:54.988Z,44.60
2018-01-11T11:13:54.979Z,44.10
2018-01-11T11:14:54.972Z,44.80
2018-01-11T11:15:54.966Z,42.70
2018-01-11T11:16:54.958Z,44.00
2018-01-11T11:17:54.951Z,42.00
2018-01-11T11:18:54.945Z,41.80
2018-01-11T11:19:54.937Z,42.10
2018-01-11T11:20:54.935Z,42.00
2018-01-11T11:21:54.925Z,44.20
2018-01-11T11:22:54.921Z,44.80
2018-01-11T11:23:54.912Z,48.00
2018-01-11T11:24:54.904Z,45.00
2018-01-11T11:25:54.897Z,46.40
2018-01-11T11:26:54.891Z,45.90
2018-01-11T11:27:54.884Z,47.80
2018-01-11T11:28:54.878Z,44.80
2018-01-11T11:29:54.868Z,43.90
2018-01-11T11:30:54.865Z,45.20
2018-01-11T11:31:54.856Z,49.90
2018-01-11T11:32:54.851Z,50.80
2018-01-11T11:33:54.842Z,51.60
2018-01-11T11:34:54.835Z,45.60
2018-01-11T11:35:54.830Z,47.70
2018-01-11T11:36:54.825Z,51.30
2018-01-11T11:37:54.815Z,49.30
2018-01-11T11:38:54.807Z,46.90
2018-01-11T11:39:54.804Z,49.70
2018-01-11T11:40:54.801Z,54.00
2018-01-11T11:41:54.790Z,54.70
2018-01-11T11:42:54.781Z,51.60
2018-01-11T11:43:54.777Z,49.60
2018-01-11T11:44:54.767Z,49.80
2018-01-11T11:45:54.765Z,48.10
2018-01-11T11:46:54.756Z,50.20
2018-01-11T11:47:54.753Z,46.10
2018-01-11T11:48:54.740Z,50.30
2018-01-11T11:49:54.733Z,54.70
2018-01-11T11:50:54.728Z,50.80
2018-01-11T11:51:54.722Z,49.80
2018-01-11T11:52:54.713Z,46.50
2018-01-11T11:53:54.704Z,48.70
2018-01-11T11:54:54.700Z,45.30
2018-01-11T11:55:54.695Z,46.10
2018-01-11T11:56:54.687Z,46.30
2018-01-11T11:57:54.679Z,44.90
2018-01-11T11:58:54.673Z,45.90
2018-01-11T11:59:54.667Z,44.70
2018-01-11T12:00:54.660Z,43.50
2018-01-11T12:01:54.654Z,42.10
2018-01-11T12:02:54.654Z,43.60
2018-01-11T12:03:54.640Z,44.50
2018-01-11T12:04:54.636Z,45.60
2018-01-11T12:05:54.626Z,43.00
2018-01-11T12:06:54.621Z,41.70
2018-01-11T12:07:54.614Z,42.50
2018-01-11T12:08:54.606Z,44.30
2018-01-11T12:09:54.604Z,43.00
2018-01-11T12:10:54.610Z,44.30
2018-01-11T12:11:54.588Z,43.00
2018-01-11T12:12:54.578Z,44.30
2018-01-11T12:13:54.570Z,44.90
2018-01-11T12:14:54.566Z,43.80
2018-01-11T12:15:54.558Z,44.40
2018-01-11T12:16:54.554Z,44.20
2018-01-11T12:17:54.546Z,44.10
2018-01-11T12:18:54.546Z,43.80
2018-01-11T12:19:54.534Z,42.10
2018-01-11T12:20:54.528Z,45.60
2018-01-11T12:21:54.520Z,46.70
2018-01-11T12:22:54.517Z,47.60
2018-01-11T12:23:54.507Z,50.70
2018-01-11T12:24:54.499Z,50.80
2018-01-11T12:25:54.492Z,49.60
2018-01-11T12:26:54.482Z,48.10
2018-01-11T12:27:54.484Z,48.40
2018-01-11T12:28:54.472Z,45.80
2018-01-11T12:29:54.465Z,50.60
2018-01-11T12:30:54.460Z,44.60
2018-01-11T12:31:54.452Z,47.70
2018-01-11T12:32:54.445Z,42.20
2018-01-11T12:33:54.438Z,42.30
2018-01-11T12:34:54.431Z,45.50
2018-01-11T12:35:54.425Z,47.10
2018-01-11T12:36:54.420Z,43.30
2018-01-11T12:37:54.411Z,42.20
2018-01-11T12:38:54.444Z,43.10
2018-01-11T12:39:54.397Z,41.50
2018-01-11T12:40:54.392Z,42.20
2018-01-11T12:41:54.385Z,45.20
2018-01-11T12:42:54.381Z,41.20
2018-01-11T12:43:54.371Z,41.50
2018-01-11T12:44:54.366Z,43.50
2018-01-11T12:45:54.358Z,43.00
2018-01-11T12:46:54.350Z,45.20
2018-01-11T12:47:54.346Z,46.10
2018-01-11T12:48:54.337Z,44.00
2018-01-11T12:49:54.333Z,43.60
2018-01-11T12:50:54.323Z,41.90
2018-01-11T12:51:54.321Z,42.00
2018-01-11T12:52:54.312Z,43.00